Terminal Aerodrome Forecast
Issued by NWS Detroit/Pontiac, MI

Home | Current Version | Previous Version | Text Only | Print | Product List | Glossary On
Versions: 1 2 3 4 5 6 7 8 9 10 11 12 13 14 15 16 17 18 19 20 21 22 23 24 25 26 27 28
000
FTUS43 KDTX 061720
TAFDTW
TAF
KDTW 061720Z 0618/0724 09005KT P6SM OVC015
     FM061900 15007KT P6SM BKN035
     FM062100 15005KT P6SM SCT035
     FM070900 18003KT 3/4SM BR VV008
     FM071500 18005KT P6SM SKC=

USA.gov is the U.S. government's official web portal to all federal, state and local government web resources and services.